sensor_id;sensor_type;location;lat;lon;timestamp;temperature;humidity
831;DHT22;397;50.564;7.272;2022-11-06T00:01:07;8.90;99.90
831;DHT22;397;50.564;7.272;2022-11-06T00:03:36;8.90;99.90
831;DHT22;397;50.564;7.272;2022-11-06T00:06:08;8.90;99.90
831;DHT22;397;50.564;7.272;2022-11-06T00:08:54;8.90;99.90
831;DHT22;397;50.564;7.272;2022-11-06T00:11:21;8.90;99.90
831;DHT22;397;50.564;7.272;2022-11-06T00:13:49;8.90;99.90
831;DHT22;397;50.564;7.272;2022-11-06T00:16:18;8.90;99.90
831;DHT22;397;50.564;7.272;2022-11-06T00:18:47;8.90;99.90
831;DHT22;397;50.564;7.272;2022-11-06T00:21:23;9.00;99.90
831;DHT22;397;50.564;7.272;2022-11-06T00:23:52;8.90;99.90
831;DHT22;397;50.564;7.272;2022-11-06T00:26:23;8.90;99.90
831;DHT22;397;50.564;7.272;2022-11-06T00:28:51;9.00;99.90
831;DHT22;397;50.564;7.272;2022-11-06T00:31:22;8.90;99.90
831;DHT22;397;50.564;7.272;2022-11-06T00:33:50;8.90;99.90
831;DHT22;397;50.564;7.272;2022-11-06T00:36:20;8.90;99.90
831;DHT22;397;50.564;7.272;2022-11-06T00:38:53;8.90;99.90
831;DHT22;397;50.564;7.272;2022-11-06T00:41:21;8.90;99.90
831;DHT22;397;50.564;7.272;2022-11-06T00:43:51;8.90;99.90
831;DHT22;397;50.564;7.272;2022-11-06T00:46:18;8.90;99.90
831;DHT22;397;50.564;7.272;2022-11-06T00:48:46;8.80;99.90
831;DHT22;397;50.564;7.272;2022-11-06T00:51:16;8.90;99.90
831;DHT22;397;50.564;7.272;2022-11-06T00:53:44;8.90;99.90
831;DHT22;397;50.564;7.272;2022-11-06T00:56:14;8.90;99.90
831;DHT22;397;50.564;7.272;2022-11-06T00:58:43;8.90;99.90
831;DHT22;397;50.564;7.272;2022-11-06T01:01:13;8.80;99.90
831;DHT22;397;50.564;7.272;2022-11-06T01:03:43;8.80;99.90
831;DHT22;397;50.564;7.272;2022-11-06T01:06:17;8.90;99.90
831;DHT22;397;50.564;7.272;2022-11-06T01:08:45;8.80;99.90
831;DHT22;397;50.564;7.272;2022-11-06T01:11:18;8.80;99.90
831;DHT22;397;50.564;7.272;2022-11-06T01:13:54;8.80;99.90
831;DHT22;397;50.564;7.272;2022-11-06T01:16:23;8.80;99.90
831;DHT22;397;50.564;7.272;2022-11-06T01:18:52;8.90;99.90
831;DHT22;397;50.564;7.272;2022-11-06T01:21:22;8.80;99.90
831;DHT22;397;50.564;7.272;2022-11-06T01:23:55;8.70;99.90
831;DHT22;397;50.564;7.272;2022-11-06T01:26:23;8.60;99.90
831;DHT22;397;50.564;7.272;2022-11-06T01:28:51;8.70;99.90
831;DHT22;397;50.564;7.272;2022-11-06T01:31:21;8.60;99.90
831;DHT22;397;50.564;7.272;2022-11-06T01:33:49;8.60;99.90
831;DHT22;397;50.564;7.272;2022-11-06T01:36:18;8.60;99.90
831;DHT22;397;50.564;7.272;2022-11-06T01:38:48;8.70;99.90
831;DHT22;397;50.564;7.272;2022-11-06T01:41:19;8.70;99.90
831;DHT22;397;50.564;7.272;2022-11-06T01:46:27;8.70;99.90
831;DHT22;397;50.564;7.272;2022-11-06T01:48:57;8.80;99.90
831;DHT22;397;50.564;7.272;2022-11-06T01:51:25;8.80;99.90
831;DHT22;397;50.564;7.272;2022-11-06T01:53:54;8.70;99.90
831;DHT22;397;50.564;7.272;2022-11-06T01:56:22;8.80;99.90
831;DHT22;397;50.564;7.272;2022-11-06T01:58:52;8.80;99.90
831;DHT22;397;50.564;7.272;2022-11-06T02:01:20;8.70;99.90
831;DHT22;397;50.564;7.272;2022-11-06T02:04:04;8.60;99.90
831;DHT22;397;50.564;7.272;2022-11-06T02:06:28;8.60;99.90
831;DHT22;397;50.564;7.272;2022-11-06T02:08:55;8.60;99.90
831;DHT22;397;50.564;7.272;2022-11-06T02:11:23;8.70;99.90
831;DHT22;397;50.564;7.272;2022-11-06T02:16:51;8.70;99.90
831;DHT22;397;50.564;7.272;2022-11-06T02:19:51;8.70;99.90
831;DHT22;397;50.564;7.272;2022-11-06T02:28:07;8.70;99.90
831;DHT22;397;50.564;7.272;2022-11-06T02:30:39;8.70;99.90
831;DHT22;397;50.564;7.272;2022-11-06T02:33:07;8.70;99.90
831;DHT22;397;50.564;7.272;2022-11-06T02:35:48;8.60;99.90
831;DHT22;397;50.564;7.272;2022-11-06T02:38:15;8.60;99.90
831;DHT22;397;50.564;7.272;2022-11-06T02:40:57;8.60;99.90
831;DHT22;397;50.564;7.272;2022-11-06T02:43:28;8.70;99.90
831;DHT22;397;50.564;7.272;2022-11-06T02:46:00;8.80;99.90
831;DHT22;397;50.564;7.272;2022-11-06T02:48:30;8.80;99.90
831;DHT22;397;50.564;7.272;2022-11-06T02:51:00;8.70;99.90
831;DHT22;397;50.564;7.272;2022-11-06T02:53:29;8.80;99.90
831;DHT22;397;50.564;7.272;2022-11-06T02:56:10;8.80;99.90
831;DHT22;397;50.564;7.272;2022-11-06T02:58:43;8.90;99.90
831;DHT22;397;50.564;7.272;2022-11-06T03:01:45;8.80;99.90
831;DHT22;397;50.564;7.272;2022-11-06T03:04:20;8.70;99.90
831;DHT22;397;50.564;7.272;2022-11-06T03:06:45;8.70;99.90
831;DHT22;397;50.564;7.272;2022-11-06T03:09:21;8.80;99.90
831;DHT22;397;50.564;7.272;2022-11-06T03:12:03;8.70;99.90
831;DHT22;397;50.564;7.272;2022-11-06T03:14:31;8.70;99.90
831;DHT22;397;50.564;7.272;2022-11-06T03:17:16;8.70;99.90
831;DHT22;397;50.564;7.272;2022-11-06T03:19:52;8.70;99.90
831;DHT22;397;50.564;7.272;2022-11-06T03:22:25;8.70;99.90
831;DHT22;397;50.564;7.272;2022-11-06T03:27:48;8.70;99.90
831;DHT22;397;50.564;7.272;2022-11-06T03:30:11;8.70;99.90
831;DHT22;397;50.564;7.272;2022-11-06T03:35:40;8.70;99.90
831;DHT22;397;50.564;7.272;2022-11-06T03:38:16;8.70;99.90
831;DHT22;397;50.564;7.272;2022-11-06T03:40:51;8.70;99.90
831;DHT22;397;50.564;7.272;2022-11-06T03:43:22;8.70;99.90
831;DHT22;397;50.564;7.272;2022-11-06T03:45:51;8.70;99.90
831;DHT22;397;50.564;7.272;2022-11-06T03:53:42;8.70;99.90
831;DHT22;397;50.564;7.272;2022-11-06T03:56:15;8.60;99.90
831;DHT22;397;50.564;7.272;2022-11-06T03:58:41;8.60;99.90
831;DHT22;397;50.564;7.272;2022-11-06T04:01:10;8.60;99.90
831;DHT22;397;50.564;7.272;2022-11-06T04:03:43;8.70;99.90
831;DHT22;397;50.564;7.272;2022-11-06T04:06:12;8.80;99.90
831;DHT22;397;50.564;7.272;2022-11-06T04:08:40;8.80;99.90
831;DHT22;397;50.564;7.272;2022-11-06T04:11:27;8.90;99.90
831;DHT22;397;50.564;7.272;2022-11-06T04:14:16;8.90;99.90
831;DHT22;397;50.564;7.272;2022-11-06T04:16:47;9.00;99.90
831;DHT22;397;50.564;7.272;2022-11-06T04:19:17;9.10;99.90
831;DHT22;397;50.564;7.272;2022-11-06T04:21:59;9.20;99.90
831;DHT22;397;50.564;7.272;2022-11-06T04:28:11;9.20;99.90
831;DHT22;397;50.564;7.272;2022-11-06T04:30:45;9.30;99.90
831;DHT22;397;50.564;7.272;2022-11-06T04:33:29;9.30;99.90
831;DHT22;397;50.564;7.272;2022-11-06T04:39:00;9.40;99.90
831;DHT22;397;50.564;7.272;2022-11-06T04:46:45;9.40;99.90
831;DHT22;397;50.564;7.272;2022-11-06T04:49:13;9.40;99.90
831;DHT22;397;50.564;7.272;2022-11-06T04:51:43;9.40;99.90
831;DHT22;397;50.564;7.272;2022-11-06T04:54:12;9.40;99.90
831;DHT22;397;50.564;7.272;2022-11-06T04:56:40;9.50;99.90
831;DHT22;397;50.564;7.272;2022-11-06T04:59:11;9.50;99.90
831;DHT22;397;50.564;7.272;2022-11-06T05:01:38;9.50;99.90
831;DHT22;397;50.564;7.272;2022-11-06T05:04:05;9.60;99.90
831;DHT22;397;50.564;7.272;2022-11-06T05:06:34;9.60;99.90
831;DHT22;397;50.564;7.272;2022-11-06T05:09:02;9.60;99.90
831;DHT22;397;50.564;7.272;2022-11-06T05:11:29;9.60;99.90
831;DHT22;397;50.564;7.272;2022-11-06T05:13:57;9.70;99.90
831;DHT22;397;50.564;7.272;2022-11-06T05:16:24;9.60;99.90
831;DHT22;397;50.564;7.272;2022-11-06T05:18:52;9.70;99.90
831;DHT22;397;50.564;7.272;2022-11-06T05:21:19;9.60;99.90
831;DHT22;397;50.564;7.272;2022-11-06T05:24:05;9.60;99.90
831;DHT22;397;50.564;7.272;2022-11-06T05:26:33;9.70;99.90
831;DHT22;397;50.564;7.272;2022-11-06T05:29:00;9.70;99.90
831;DHT22;397;50.564;7.272;2022-11-06T05:31:28;9.70;99.90
831;DHT22;397;50.564;7.272;2022-11-06T05:33:55;9.70;99.90
831;DHT22;397;50.564;7.272;2022-11-06T05:36:23;9.70;99.90
831;DHT22;397;50.564;7.272;2022-11-06T05:38:50;9.60;99.90
831;DHT22;397;50.564;7.272;2022-11-06T05:41:18;9.60;99.90
831;DHT22;397;50.564;7.272;2022-11-06T05:43:45;9.60;99.90
831;DHT22;397;50.564;7.272;2022-11-06T05:46:13;9.60;99.90
831;DHT22;397;50.564;7.272;2022-11-06T05:48:40;9.60;99.90
831;DHT22;397;50.564;7.272;2022-11-06T05:51:08;9.60;99.90
831;DHT22;397;50.564;7.272;2022-11-06T05:53:36;9.60;99.90
831;DHT22;397;50.564;7.272;2022-11-06T05:56:04;9.60;99.90
831;DHT22;397;50.564;7.272;2022-11-06T05:58:32;9.60;99.90
831;DHT22;397;50.564;7.272;2022-11-06T06:00:59;9.60;99.90
831;DHT22;397;50.564;7.272;2022-11-06T06:03:27;9.60;99.90
831;DHT22;397;50.564;7.272;2022-11-06T06:05:54;9.60;99.90
831;DHT22;397;50.564;7.272;2022-11-06T06:08:22;9.50;99.90
831;DHT22;397;50.564;7.272;2022-11-06T06:10:49;9.40;99.90
831;DHT22;397;50.564;7.272;2022-11-06T06:13:17;9.40;99.90
831;DHT22;397;50.564;7.272;2022-11-06T06:15:44;9.30;99.90
831;DHT22;397;50.564;7.272;2022-11-06T06:18:12;9.20;99.90
831;DHT22;397;50.564;7.272;2022-11-06T06:20:40;9.10;99.90
831;DHT22;397;50.564;7.272;2022-11-06T06:23:08;9.20;99.90
831;DHT22;397;50.564;7.272;2022-11-06T06:25:36;9.10;99.90
831;DHT22;397;50.564;7.272;2022-11-06T06:28:03;9.10;99.90
831;DHT22;397;50.564;7.272;2022-11-06T06:30:31;9.10;99.90
831;DHT22;397;50.564;7.272;2022-11-06T06:33:04;9.10;99.90
831;DHT22;397;50.564;7.272;2022-11-06T06:35:32;9.00;99.90
831;DHT22;397;50.564;7.272;2022-11-06T06:38:00;9.00;99.90
831;DHT22;397;50.564;7.272;2022-11-06T06:40:27;9.00;99.90
831;DHT22;397;50.564;7.272;2022-11-06T06:42:57;9.00;99.90
831;DHT22;397;50.564;7.272;2022-11-06T06:45:25;8.90;99.90
831;DHT22;397;50.564;7.272;2022-11-06T06:47:53;9.00;99.90
831;DHT22;397;50.564;7.272;2022-11-06T06:50:20;9.00;99.90
831;DHT22;397;50.564;7.272;2022-11-06T06:52:48;9.00;99.90
831;DHT22;397;50.564;7.272;2022-11-06T06:55:15;9.00;99.90
831;DHT22;397;50.564;7.272;2022-11-06T06:57:43;9.00;99.90
831;DHT22;397;50.564;7.272;2022-11-06T07:00:11;9.00;99.90
831;DHT22;397;50.564;7.272;2022-11-06T07:02:38;8.90;99.90
831;DHT22;397;50.564;7.272;2022-11-06T07:05:06;8.90;99.90
831;DHT22;397;50.564;7.272;2022-11-06T07:07:34;9.00;99.90
831;DHT22;397;50.564;7.272;2022-11-06T07:10:02;8.90;99.90
831;DHT22;397;50.564;7.272;2022-11-06T07:12:29;9.00;99.90
831;DHT22;397;50.564;7.272;2022-11-06T07:14:57;9.10;99.90
831;DHT22;397;50.564;7.272;2022-11-06T07:17:24;9.10;99.90
831;DHT22;397;50.564;7.272;2022-11-06T07:19:52;9.10;99.90
831;DHT22;397;50.564;7.272;2022-11-06T07:22:20;9.10;99.90
831;DHT22;397;50.564;7.272;2022-11-06T07:24:47;9.00;99.90
831;DHT22;397;50.564;7.272;2022-11-06T07:27:14;9.10;99.90
831;DHT22;397;50.564;7.272;2022-11-06T07:29:42;9.10;99.90
831;DHT22;397;50.564;7.272;2022-11-06T07:32:09;9.10;99.90
831;DHT22;397;50.564;7.272;2022-11-06T07:34:37;9.20;99.90
831;DHT22;397;50.564;7.272;2022-11-06T07:37:05;9.30;99.90
831;DHT22;397;50.564;7.272;2022-11-06T07:39:33;9.40;99.90
831;DHT22;397;50.564;7.272;2022-11-06T07:42:00;9.60;99.90
831;DHT22;397;50.564;7.272;2022-11-06T07:44:28;9.50;99.90
831;DHT22;397;50.564;7.272;2022-11-06T07:46:55;9.60;99.90
831;DHT22;397;50.564;7.272;2022-11-06T07:49:23;9.80;99.90
831;DHT22;397;50.564;7.272;2022-11-06T07:51:52;9.80;99.90
831;DHT22;397;50.564;7.272;2022-11-06T07:54:19;9.80;99.90
831;DHT22;397;50.564;7.272;2022-11-06T07:56:47;9.80;99.90
831;DHT22;397;50.564;7.272;2022-11-06T07:59:14;9.90;99.90
831;DHT22;397;50.564;7.272;2022-11-06T08:01:42;10.00;99.90
831;DHT22;397;50.564;7.272;2022-11-06T08:04:10;10.10;99.90
831;DHT22;397;50.564;7.272;2022-11-06T08:06:37;10.00;99.90
831;DHT22;397;50.564;7.272;2022-11-06T08:09:06;10.00;99.90
831;DHT22;397;50.564;7.272;2022-11-06T08:11:34;10.10;99.90
831;DHT22;397;50.564;7.272;2022-11-06T08:14:01;10.20;99.90
831;DHT22;397;50.564;7.272;2022-11-06T08:16:29;10.10;99.90
831;DHT22;397;50.564;7.272;2022-11-06T08:18:57;10.20;99.90
831;DHT22;397;50.564;7.272;2022-11-06T08:21:24;10.10;99.90
831;DHT22;397;50.564;7.272;2022-11-06T08:23:52;10.10;99.90
831;DHT22;397;50.564;7.272;2022-11-06T08:26:19;10.00;99.90
831;DHT22;397;50.564;7.272;2022-11-06T08:28:47;10.00;99.90
831;DHT22;397;50.564;7.272;2022-11-06T08:31:14;10.10;99.90
831;DHT22;397;50.564;7.272;2022-11-06T08:33:42;10.00;99.90
831;DHT22;397;50.564;7.272;2022-11-06T08:36:09;10.10;99.90
831;DHT22;397;50.564;7.272;2022-11-06T08:38:37;10.20;99.90
831;DHT22;397;50.564;7.272;2022-11-06T08:41:06;10.00;99.90
831;DHT22;397;50.564;7.272;2022-11-06T08:43:35;10.00;99.90
831;DHT22;397;50.564;7.272;2022-11-06T08:46:04;10.00;99.90
831;DHT22;397;50.564;7.272;2022-11-06T08:48:32;10.10;99.90
831;DHT22;397;50.564;7.272;2022-11-06T08:51:00;10.10;99.90
831;DHT22;397;50.564;7.272;2022-11-06T08:53:28;10.20;99.90
831;DHT22;397;50.564;7.272;2022-11-06T08:55:55;10.20;99.90
831;DHT22;397;50.564;7.272;2022-11-06T08:58:23;10.20;99.90
831;DHT22;397;50.564;7.272;2022-11-06T09:00:50;10.10;99.90
831;DHT22;397;50.564;7.272;2022-11-06T09:03:18;10.10;99.90
831;DHT22;397;50.564;7.272;2022-11-06T09:05:45;10.20;99.90
831;DHT22;397;50.564;7.272;2022-11-06T09:08:13;10.10;99.90
831;DHT22;397;50.564;7.272;2022-11-06T09:10:42;10.10;99.90
831;DHT22;397;50.564;7.272;2022-11-06T09:13:10;10.00;99.90
831;DHT22;397;50.564;7.272;2022-11-06T09:15:38;10.10;99.90
831;DHT22;397;50.564;7.272;2022-11-06T09:18:06;10.00;99.90
831;DHT22;397;50.564;7.272;2022-11-06T09:20:33;10.00;99.90
831;DHT22;397;50.564;7.272;2022-11-06T09:23:05;10.00;99.90
831;DHT22;397;50.564;7.272;2022-11-06T09:25:34;10.00;99.90
831;DHT22;397;50.564;7.272;2022-11-06T09:28:01;10.00;99.90
831;DHT22;397;50.564;7.272;2022-11-06T09:30:30;10.00;99.90
831;DHT22;397;50.564;7.272;2022-11-06T09:33:00;10.10;99.90
831;DHT22;397;50.564;7.272;2022-11-06T09:35:30;10.20;99.90
831;DHT22;397;50.564;7.272;2022-11-06T09:38:07;10.30;99.90
831;DHT22;397;50.564;7.272;2022-11-06T09:40:45;10.30;99.90
831;DHT22;397;50.564;7.272;2022-11-06T09:48:41;10.30;99.90
831;DHT22;397;50.564;7.272;2022-11-06T09:54:02;10.30;99.90
831;DHT22;397;50.564;7.272;2022-11-06T09:56:28;10.30;99.90
831;DHT22;397;50.564;7.272;2022-11-06T09:58:57;10.40;99.90
831;DHT22;397;50.564;7.272;2022-11-06T10:01:39;10.40;99.90
831;DHT22;397;50.564;7.272;2022-11-06T10:04:21;10.40;99.90
831;DHT22;397;50.564;7.272;2022-11-06T10:06:44;10.60;99.90
831;DHT22;397;50.564;7.272;2022-11-06T10:09:12;10.50;99.90
831;DHT22;397;50.564;7.272;2022-11-06T10:14:39;10.60;99.90
831;DHT22;397;50.564;7.272;2022-11-06T10:22:38;10.90;99.90
831;DHT22;397;50.564;7.272;2022-11-06T10:25:24;11.00;99.90
831;DHT22;397;50.564;7.272;2022-11-06T10:28:00;11.10;99.90
831;DHT22;397;50.564;7.272;2022-11-06T10:30:48;11.10;99.90
831;DHT22;397;50.564;7.272;2022-11-06T10:33:30;11.20;99.90
831;DHT22;397;50.564;7.272;2022-11-06T10:36:11;11.10;99.90
831;DHT22;397;50.564;7.272;2022-11-06T10:38:37;11.00;99.90
831;DHT22;397;50.564;7.272;2022-11-06T10:41:22;11.10;99.90
831;DHT22;397;50.564;7.272;2022-11-06T10:44:03;11.10;99.90
831;DHT22;397;50.564;7.272;2022-11-06T10:46:35;11.20;99.90
831;DHT22;397;50.564;7.272;2022-11-06T10:49:18;11.20;99.90
831;DHT22;397;50.564;7.272;2022-11-06T10:57:37;11.40;99.90
831;DHT22;397;50.564;7.272;2022-11-06T11:00:05;11.40;99.90
831;DHT22;397;50.564;7.272;2022-11-06T11:02:47;11.50;99.90
831;DHT22;397;50.564;7.272;2022-11-06T11:05:19;11.50;99.90
831;DHT22;397;50.564;7.272;2022-11-06T11:07:45;11.50;99.90
831;DHT22;397;50.564;7.272;2022-11-06T11:10:33;11.60;99.90
831;DHT22;397;50.564;7.272;2022-11-06T11:13:04;11.50;99.90
831;DHT22;397;50.564;7.272;2022-11-06T11:15:43;11.60;99.90
831;DHT22;397;50.564;7.272;2022-11-06T11:20:49;11.70;99.90
831;DHT22;397;50.564;7.272;2022-11-06T11:23:25;11.70;99.90
831;DHT22;397;50.564;7.272;2022-11-06T11:25:55;11.70;99.90
831;DHT22;397;50.564;7.272;2022-11-06T11:28:34;11.90;99.90
831;DHT22;397;50.564;7.272;2022-11-06T11:31:11;11.90;99.90
831;DHT22;397;50.564;7.272;2022-11-06T11:33:40;11.80;99.90
831;DHT22;397;50.564;7.272;2022-11-06T11:36:09;11.80;99.90
831;DHT22;397;50.564;7.272;2022-11-06T11:38:38;11.90;99.90
831;DHT22;397;50.564;7.272;2022-11-06T11:41:11;12.00;99.90
831;DHT22;397;50.564;7.272;2022-11-06T11:43:37;12.00;99.90
831;DHT22;397;50.564;7.272;2022-11-06T11:48:56;12.00;99.90
831;DHT22;397;50.564;7.272;2022-11-06T11:54:01;12.10;99.90
831;DHT22;397;50.564;7.272;2022-11-06T11:56:26;12.10;99.90
831;DHT22;397;50.564;7.272;2022-11-06T11:59:02;12.20;99.90
831;DHT22;397;50.564;7.272;2022-11-06T12:01:39;12.30;99.90
831;DHT22;397;50.564;7.272;2022-11-06T12:04:13;12.30;99.90
831;DHT22;397;50.564;7.272;2022-11-06T12:06:50;12.20;99.90
831;DHT22;397;50.564;7.272;2022-11-06T12:09:10;12.30;99.90
831;DHT22;397;50.564;7.272;2022-11-06T12:11:41;12.30;99.90
831;DHT22;397;50.564;7.272;2022-11-06T12:14:17;12.30;99.90
831;DHT22;397;50.564;7.272;2022-11-06T12:16:48;12.30;99.90
831;DHT22;397;50.564;7.272;2022-11-06T12:19:17;12.30;99.90
831;DHT22;397;50.564;7.272;2022-11-06T12:21:55;12.30;99.90
831;DHT22;397;50.564;7.272;2022-11-06T12:24:24;12.30;99.90
831;DHT22;397;50.564;7.272;2022-11-06T12:26:57;12.40;99.90
831;DHT22;397;50.564;7.272;2022-11-06T12:30:10;12.40;99.90
831;DHT22;397;50.564;7.272;2022-11-06T12:32:53;12.50;99.90
831;DHT22;397;50.564;7.272;2022-11-06T12:41:03;12.50;99.90
831;DHT22;397;50.564;7.272;2022-11-06T12:43:48;12.50;99.90
831;DHT22;397;50.564;7.272;2022-11-06T12:54:34;12.30;99.90
831;DHT22;397;50.564;7.272;2022-11-06T12:57:23;12.30;99.90
831;DHT22;397;50.564;7.272;2022-11-06T13:00:00;12.30;99.90
831;DHT22;397;50.564;7.272;2022-11-06T13:02:46;12.30;99.90
831;DHT22;397;50.564;7.272;2022-11-06T13:05:32;12.20;99.90
831;DHT22;397;50.564;7.272;2022-11-06T13:16:32;12.30;99.90
831;DHT22;397;50.564;7.272;2022-11-06T13:19:20;12.30;99.90
831;DHT22;397;50.564;7.272;2022-11-06T13:27:36;12.20;99.90
831;DHT22;397;50.564;7.272;2022-11-06T13:30:02;12.20;99.90
831;DHT22;397;50.564;7.272;2022-11-06T13:32:31;12.10;99.90
831;DHT22;397;50.564;7.272;2022-11-06T13:35:01;12.10;99.90
831;DHT22;397;50.564;7.272;2022-11-06T13:37:37;12.10;99.90
831;DHT22;397;50.564;7.272;2022-11-06T13:40:17;12.20;99.90
831;DHT22;397;50.564;7.272;2022-11-06T13:42:54;12.20;99.90
831;DHT22;397;50.564;7.272;2022-11-06T13:45:23;12.20;99.90
831;DHT22;397;50.564;7.272;2022-11-06T13:48:16;12.20;99.90
831;DHT22;397;50.564;7.272;2022-11-06T13:51:05;12.20;99.90
831;DHT22;397;50.564;7.272;2022-11-06T13:53:36;12.20;99.90
831;DHT22;397;50.564;7.272;2022-11-06T13:56:21;12.20;99.90
831;DHT22;397;50.564;7.272;2022-11-06T14:04:35;12.20;99.90
831;DHT22;397;50.564;7.272;2022-11-06T14:07:01;12.20;99.90
831;DHT22;397;50.564;7.272;2022-11-06T14:09:32;12.20;99.90
831;DHT22;397;50.564;7.272;2022-11-06T14:12:04;12.20;99.90
831;DHT22;397;50.564;7.272;2022-11-06T14:14:32;12.10;99.90
831;DHT22;397;50.564;7.272;2022-11-06T14:17:21;12.00;99.90
831;DHT22;397;50.564;7.272;2022-11-06T14:22:31;11.90;99.90
831;DHT22;397;50.564;7.272;2022-11-06T14:25:45;11.90;99.90
831;DHT22;397;50.564;7.272;2022-11-06T14:30:17;11.80;99.90
831;DHT22;397;50.564;7.272;2022-11-06T14:32:40;11.80;99.90
831;DHT22;397;50.564;7.272;2022-11-06T14:40:58;11.70;99.90
831;DHT22;397;50.564;7.272;2022-11-06T14:43:31;11.60;99.90
831;DHT22;397;50.564;7.272;2022-11-06T14:46:19;11.50;99.90
831;DHT22;397;50.564;7.272;2022-11-06T14:48:41;11.50;99.90
831;DHT22;397;50.564;7.272;2022-11-06T14:51:05;11.40;99.90
831;DHT22;397;50.564;7.272;2022-11-06T14:53:45;11.40;99.90
831;DHT22;397;50.564;7.272;2022-11-06T14:56:32;11.30;99.90
831;DHT22;397;50.564;7.272;2022-11-06T14:59:04;11.30;99.90
831;DHT22;397;50.564;7.272;2022-11-06T15:01:35;11.30;99.90
831;DHT22;397;50.564;7.272;2022-11-06T15:04:04;11.30;99.90
831;DHT22;397;50.564;7.272;2022-11-06T15:06:35;11.20;99.90
831;DHT22;397;50.564;7.272;2022-11-06T15:09:13;11.10;99.90
831;DHT22;397;50.564;7.272;2022-11-06T15:11:47;11.20;99.90
831;DHT22;397;50.564;7.272;2022-11-06T15:16:44;11.10;99.90
831;DHT22;397;50.564;7.272;2022-11-06T15:19:32;11.10;99.90
831;DHT22;397;50.564;7.272;2022-11-06T15:25:28;11.00;99.90
831;DHT22;397;50.564;7.272;2022-11-06T15:27:41;11.00;99.90
831;DHT22;397;50.564;7.272;2022-11-06T15:30:16;11.10;99.90
831;DHT22;397;50.564;7.272;2022-11-06T15:32:46;11.10;99.90
831;DHT22;397;50.564;7.272;2022-11-06T15:35:23;11.00;99.90
831;DHT22;397;50.564;7.272;2022-11-06T15:40:40;10.90;99.90
831;DHT22;397;50.564;7.272;2022-11-06T15:43:26;10.80;99.90
831;DHT22;397;50.564;7.272;2022-11-06T15:48:38;10.80;99.90
831;DHT22;397;50.564;7.272;2022-11-06T15:54:11;10.70;99.90
831;DHT22;397;50.564;7.272;2022-11-06T15:56:37;10.80;99.90
831;DHT22;397;50.564;7.272;2022-11-06T15:59:10;10.70;99.90
831;DHT22;397;50.564;7.272;2022-11-06T16:01:38;10.70;99.90
831;DHT22;397;50.564;7.272;2022-11-06T16:04:12;10.70;99.90
831;DHT22;397;50.564;7.272;2022-11-06T16:06:41;10.70;99.90
831;DHT22;397;50.564;7.272;2022-11-06T16:09:17;10.70;99.90
831;DHT22;397;50.564;7.272;2022-11-06T16:11:49;10.70;99.90
831;DHT22;397;50.564;7.272;2022-11-06T16:14:17;10.70;99.90
831;DHT22;397;50.564;7.272;2022-11-06T16:16:47;10.70;99.90
831;DHT22;397;50.564;7.272;2022-11-06T16:19:23;10.60;99.90
831;DHT22;397;50.564;7.272;2022-11-06T16:21:56;10.50;99.90
831;DHT22;397;50.564;7.272;2022-11-06T16:24:24;10.60;99.90
831;DHT22;397;50.564;7.272;2022-11-06T16:26:53;10.50;99.90
831;DHT22;397;50.564;7.272;2022-11-06T16:29:28;10.40;99.90
831;DHT22;397;50.564;7.272;2022-11-06T16:32:04;10.30;99.90
831;DHT22;397;50.564;7.272;2022-11-06T16:34:35;10.30;99.90
831;DHT22;397;50.564;7.272;2022-11-06T16:37:21;10.30;99.90
831;DHT22;397;50.564;7.272;2022-11-06T16:42:26;10.20;99.90
831;DHT22;397;50.564;7.272;2022-11-06T16:45:18;10.10;99.90
831;DHT22;397;50.564;7.272;2022-11-06T16:50:50;10.10;99.90
831;DHT22;397;50.564;7.272;2022-11-06T16:53:26;10.10;99.90
831;DHT22;397;50.564;7.272;2022-11-06T16:56:09;10.00;99.90
831;DHT22;397;50.564;7.272;2022-11-06T16:59:00;10.00;99.90
831;DHT22;397;50.564;7.272;2022-11-06T17:01:36;10.10;99.90
831;DHT22;397;50.564;7.272;2022-11-06T17:04:04;10.10;99.90
831;DHT22;397;50.564;7.272;2022-11-06T17:06:35;10.20;99.90
831;DHT22;397;50.564;7.272;2022-11-06T17:11:52;10.20;99.90
831;DHT22;397;50.564;7.272;2022-11-06T17:14:20;10.10;99.90
831;DHT22;397;50.564;7.272;2022-11-06T17:16:53;10.00;99.90
831;DHT22;397;50.564;7.272;2022-11-06T17:19:23;10.00;99.90
831;DHT22;397;50.564;7.272;2022-11-06T17:21:52;10.00;99.90
831;DHT22;397;50.564;7.272;2022-11-06T17:24:20;10.10;99.90
831;DHT22;397;50.564;7.272;2022-11-06T17:26:49;10.20;99.90
831;DHT22;397;50.564;7.272;2022-11-06T17:29:17;10.20;99.90
831;DHT22;397;50.564;7.272;2022-11-06T17:31:45;10.20;99.90
831;DHT22;397;50.564;7.272;2022-11-06T17:34:14;10.20;99.90
831;DHT22;397;50.564;7.272;2022-11-06T17:36:42;10.20;99.90
831;DHT22;397;50.564;7.272;2022-11-06T17:39:09;10.20;99.90
831;DHT22;397;50.564;7.272;2022-11-06T17:41:37;10.20;99.90
831;DHT22;397;50.564;7.272;2022-11-06T17:44:10;10.20;99.90
831;DHT22;397;50.564;7.272;2022-11-06T17:46:43;10.20;99.90
831;DHT22;397;50.564;7.272;2022-11-06T17:49:12;10.10;99.90
831;DHT22;397;50.564;7.272;2022-11-06T17:51:40;10.10;99.90
831;DHT22;397;50.564;7.272;2022-11-06T17:54:20;10.20;99.90
831;DHT22;397;50.564;7.272;2022-11-06T17:56:48;10.20;99.90
831;DHT22;397;50.564;7.272;2022-11-06T17:59:36;10.20;99.90
831;DHT22;397;50.564;7.272;2022-11-06T18:02:03;10.10;99.90
831;DHT22;397;50.564;7.272;2022-11-06T18:04:32;10.20;99.90
831;DHT22;397;50.564;7.272;2022-11-06T18:07:00;10.20;99.90
831;DHT22;397;50.564;7.272;2022-11-06T18:09:27;10.20;99.90
831;DHT22;397;50.564;7.272;2022-11-06T18:11:55;10.20;99.90
831;DHT22;397;50.564;7.272;2022-11-06T18:14:25;10.20;99.90
831;DHT22;397;50.564;7.272;2022-11-06T18:16:53;10.20;99.90
831;DHT22;397;50.564;7.272;2022-11-06T18:19:22;10.30;99.90
831;DHT22;397;50.564;7.272;2022-11-06T18:21:51;10.20;99.90
831;DHT22;397;50.564;7.272;2022-11-06T18:24:19;10.30;99.90
831;DHT22;397;50.564;7.272;2022-11-06T18:26:46;10.20;99.90
831;DHT22;397;50.564;7.272;2022-11-06T18:29:14;10.30;99.90
831;DHT22;397;50.564;7.272;2022-11-06T18:31:41;10.40;99.90
831;DHT22;397;50.564;7.272;2022-11-06T18:34:12;10.30;99.90
831;DHT22;397;50.564;7.272;2022-11-06T18:36:40;10.40;99.90
831;DHT22;397;50.564;7.272;2022-11-06T18:39:07;10.40;99.90
831;DHT22;397;50.564;7.272;2022-11-06T18:41:35;10.40;99.90
831;DHT22;397;50.564;7.272;2022-11-06T18:44:02;10.40;99.90
831;DHT22;397;50.564;7.272;2022-11-06T18:46:31;10.40;99.90
831;DHT22;397;50.564;7.272;2022-11-06T18:48:59;10.40;99.90
831;DHT22;397;50.564;7.272;2022-11-06T18:51:29;10.40;99.90
831;DHT22;397;50.564;7.272;2022-11-06T18:53:58;10.40;99.90
831;DHT22;397;50.564;7.272;2022-11-06T18:56:26;10.30;99.90
831;DHT22;397;50.564;7.272;2022-11-06T18:58:54;10.20;99.90
831;DHT22;397;50.564;7.272;2022-11-06T19:01:22;10.30;99.90
831;DHT22;397;50.564;7.272;2022-11-06T19:03:51;10.30;99.90
831;DHT22;397;50.564;7.272;2022-11-06T19:06:20;10.30;99.90
831;DHT22;397;50.564;7.272;2022-11-06T19:08:48;10.40;99.90
831;DHT22;397;50.564;7.272;2022-11-06T19:11:17;10.40;99.90
831;DHT22;397;50.564;7.272;2022-11-06T19:13:44;10.40;99.90
831;DHT22;397;50.564;7.272;2022-11-06T19:16:12;10.40;99.90
831;DHT22;397;50.564;7.272;2022-11-06T19:18:40;10.40;99.90
831;DHT22;397;50.564;7.272;2022-11-06T19:21:09;10.30;99.90